createdAt,value
2016-07-08T00:00:15.333Z,19.46
2016-07-08T00:01:16.563Z,19.41
2016-07-08T00:02:15.934Z,19.46
2016-07-08T00:03:15.919Z,19.41
2016-07-08T00:04:15.896Z,19.37
2016-07-08T00:05:15.890Z,19.28
2016-07-08T00:06:16.497Z,19.4
2016-07-08T00:07:16.498Z,19.4
2016-07-08T00:08:16.469Z,19.43
2016-07-08T00:09:16.559Z,19.38
2016-07-08T00:10:16.459Z,19.44
2016-07-08T00:11:16.434Z,19.37
2016-07-08T00:12:16.418Z,19.08
2016-07-08T00:13:16.416Z,19.25
2016-07-08T00:14:16.398Z,19.12
2016-07-08T00:15:16.395Z,19.04
2016-07-08T00:16:16.385Z,18.96
2016-07-08T00:17:15.741Z,18.95
2016-07-08T00:18:16.351Z,18.93
2016-07-08T00:19:15.716Z,19.02
2016-07-08T00:20:16.326Z,19.07
2016-07-08T00:21:15.694Z,18.97
2016-07-08T00:22:15.727Z,19.14
2016-07-08T00:23:16.294Z,19.16
2016-07-08T00:24:15.097Z,19.22
2016-07-08T00:25:15.647Z,19.12
2016-07-08T00:26:15.648Z,19.14
2016-07-08T00:27:16.246Z,19.18
2016-07-08T00:28:16.267Z,19.23
2016-07-08T00:29:15.593Z,19.22
2016-07-08T00:30:15.587Z,19.23
2016-07-08T00:31:16.195Z,19.34
2016-07-08T00:32:16.208Z,19.33
2016-07-08T00:33:16.178Z,19.21
2016-07-08T00:34:15.548Z,19.22
2016-07-08T00:35:16.135Z,19.37
2016-07-08T00:36:15.516Z,19.26
2016-07-08T00:37:15.490Z,19.44
2016-07-08T00:38:16.100Z,19.41
2016-07-08T00:39:16.093Z,19.43
2016-07-08T00:40:15.464Z,19.36
2016-07-08T00:41:16.066Z,19.33
2016-07-08T00:42:16.059Z,19.33
2016-07-08T00:43:16.054Z,19.25
2016-07-08T00:44:16.034Z,19.22
2016-07-08T00:45:16.029Z,19.23
2016-07-08T00:46:16.010Z,19.06
2016-07-08T00:47:14.746Z,19.06
2016-07-08T00:48:15.983Z,19
2016-07-08T00:49:15.366Z,18.95
2016-07-08T00:50:15.960Z,18.92
2016-07-08T00:51:15.949Z,18.88
2016-07-08T00:52:15.938Z,18.82
2016-07-08T00:53:15.926Z,18.75
2016-07-08T00:54:15.904Z,18.78
2016-07-08T00:55:15.359Z,18.8
2016-07-08T00:56:15.278Z,18.75
2016-07-08T00:57:15.865Z,18.74
2016-07-08T00:58:15.866Z,18.84
2016-07-08T00:59:15.223Z,18.88
2016-07-08T01:00:15.219Z,18.9
2016-07-08T01:01:15.830Z,19.07
2016-07-08T01:02:15.818Z,19.06
2016-07-08T01:03:15.790Z,19.02
2016-07-08T01:04:15.170Z,18.99
2016-07-08T01:05:15.177Z,19.11
2016-07-08T01:06:15.770Z,19.19
2016-07-08T01:07:15.132Z,19.23
2016-07-08T01:08:15.119Z,19.33
2016-07-08T01:09:15.131Z,19.33
2016-07-08T01:10:15.089Z,19.28
2016-07-08T01:11:14.455Z,19.31
2016-07-08T01:12:15.687Z,19.22
2016-07-08T01:13:15.065Z,19.04
2016-07-08T01:14:15.059Z,19.19
2016-07-08T01:15:15.036Z,19.26
2016-07-08T01:16:15.647Z,18.99
2016-07-08T01:17:15.637Z,18.87
2016-07-08T01:18:15.000Z,18.95
2016-07-08T01:19:15.604Z,18.69
2016-07-08T01:20:15.576Z,18.74
2016-07-08T01:21:15.577Z,18.74
2016-07-08T01:22:14.930Z,18.67
2016-07-08T01:23:15.588Z,18.63
2016-07-08T01:24:15.536Z,18.78
2016-07-08T01:25:15.618Z,18.59
2016-07-08T01:26:14.905Z,18.62
2016-07-08T01:27:14.888Z,18.59
2016-07-08T01:28:15.480Z,18.77
2016-07-08T01:29:15.530Z,18.74
2016-07-08T01:30:15.468Z,18.74
2016-07-08T01:31:15.459Z,18.78
2016-07-08T01:32:15.430Z,18.88
2016-07-08T01:33:15.425Z,18.75
2016-07-08T01:34:14.798Z,18.66
2016-07-08T01:35:15.391Z,18.65
2016-07-08T01:36:15.389Z,18.6
2016-07-08T01:37:14.751Z,18.55
2016-07-08T01:38:15.354Z,18.6
2016-07-08T01:39:15.354Z,18.59
2016-07-08T01:40:14.721Z,18.5
2016-07-08T01:41:14.699Z,18.5
2016-07-08T01:42:14.691Z,18.58
2016-07-08T01:43:15.299Z,18.55
2016-07-08T01:44:14.661Z,18.51
2016-07-08T01:45:15.277Z,18.59
2016-07-08T01:46:14.642Z,18.51
2016-07-08T01:47:15.295Z,18.4
2016-07-08T01:48:15.243Z,18.5
2016-07-08T01:49:14.600Z,18.5
2016-07-08T01:50:14.590Z,18.48
2016-07-08T01:51:14.569Z,18.56
2016-07-08T01:52:15.179Z,18.6
2016-07-08T01:53:14.554Z,18.55
2016-07-08T01:54:15.154Z,18.47
2016-07-08T01:55:15.205Z,18.48
2016-07-08T01:56:15.148Z,18.65
2016-07-08T01:57:15.183Z,18.75
2016-07-08T01:58:14.487Z,18.7
2016-07-08T01:59:14.480Z,18.78
2016-07-08T02:00:15.091Z,18.75
2016-07-08T02:01:14.452Z,18.75
2016-07-08T02:02:14.441Z,18.85
2016-07-08T02:03:14.426Z,18.81
2016-07-08T02:04:15.028Z,18.93
2016-07-08T02:05:15.013Z,18.93
2016-07-08T02:06:14.385Z,18.7
2016-07-08T02:07:14.362Z,18.65
2016-07-08T02:08:14.369Z,18.74
2016-07-08T02:09:14.409Z,18.78
2016-07-08T02:10:14.958Z,18.87
2016-07-08T02:11:14.313Z,18.77
2016-07-08T02:12:14.925Z,18.74
2016-07-08T02:13:14.316Z,18.58
2016-07-08T02:14:14.904Z,18.48
2016-07-08T02:15:14.894Z,18.63
2016-07-08T02:16:14.252Z,18.73
2016-07-08T02:17:14.877Z,18.78
2016-07-08T02:18:14.856Z,18.77
2016-07-08T02:19:14.880Z,18.7
2016-07-08T02:20:14.827Z,18.59
2016-07-08T02:21:14.829Z,18.59
2016-07-08T02:22:14.799Z,18.73
2016-07-08T02:23:14.157Z,18.77
2016-07-08T02:24:14.169Z,18.65
2016-07-08T02:25:14.149Z,18.62
2016-07-08T02:26:14.747Z,18.44
2016-07-08T02:27:14.128Z,18.63
2016-07-08T02:28:14.734Z,18.47
2016-07-08T02:29:14.701Z,18.41
2016-07-08T02:30:14.069Z,18.44
2016-07-08T02:31:14.689Z,18.5
2016-07-08T02:32:14.064Z,18.5
2016-07-08T02:33:14.673Z,18.52
2016-07-08T02:34:14.651Z,18.5
2016-07-08T02:35:14.637Z,18.48
2016-07-08T02:36:14.627Z,18.48
2016-07-08T02:37:14.623Z,18.41
2016-07-08T02:38:14.596Z,18.33
2016-07-08T02:39:14.589Z,18.38
2016-07-08T02:40:13.951Z,18.45
2016-07-08T02:41:14.566Z,18.56
2016-07-08T02:42:14.545Z,18.66
2016-07-08T02:43:14.550Z,18.5
2016-07-08T02:44:14.519Z,18.51
2016-07-08T02:45:14.513Z,18.48
2016-07-08T02:46:14.493Z,18.51
2016-07-08T02:47:14.483Z,18.47
2016-07-08T02:48:13.856Z,18.52
2016-07-08T02:49:13.833Z,18.66
2016-07-08T02:50:14.489Z,18.65
2016-07-08T02:51:14.426Z,18.62
2016-07-08T02:52:14.416Z,18.73
2016-07-08T02:53:14.419Z,18.7
2016-07-08T02:54:13.767Z,18.67
2016-07-08T02:55:14.378Z,18.45
2016-07-08T02:56:14.419Z,18.45
2016-07-08T02:57:14.365Z,18.42
2016-07-08T02:58:14.349Z,18.38
2016-07-08T02:59:14.327Z,18.25
2016-07-08T03:00:14.314Z,18.25
2016-07-08T03:01:14.309Z,18.4
2016-07-08T03:02:13.661Z,18.29
2016-07-08T03:03:13.028Z,18.25
2016-07-08T03:04:13.684Z,18.42
2016-07-08T03:05:14.265Z,18.45
2016-07-08T03:06:14.237Z,18.52
2016-07-08T03:07:14.224Z,18.56
2016-07-08T03:08:14.202Z,18.63
2016-07-08T03:09:14.194Z,18.63
2016-07-08T03:10:14.184Z,18.65
2016-07-08T03:11:13.551Z,18.7
2016-07-08T03:12:14.149Z,18.56
2016-07-08T03:13:13.524Z,18.48
2016-07-08T03:14:14.139Z,18.5
2016-07-08T03:15:13.516Z,18.45
2016-07-08T03:16:14.109Z,18.58
2016-07-08T03:17:14.109Z,18.47
2016-07-08T03:18:13.461Z,18.48
2016-07-08T03:19:14.070Z,18.51
2016-07-08T03:20:14.065Z,18.52
2016-07-08T03:21:14.049Z,18.6
2016-07-08T03:22:14.049Z,18.62
2016-07-08T03:23:14.015Z,18.7
2016-07-08T03:24:14.002Z,18.63
2016-07-08T03:25:13.370Z,18.67
2016-07-08T03:26:13.973Z,18.69
2016-07-08T03:27:13.949Z,18.63
2016-07-08T03:28:13.961Z,18.59
2016-07-08T03:29:13.353Z,18.63
2016-07-08T03:30:13.916Z,18.56
2016-07-08T03:31:13.920Z,18.56
2016-07-08T03:32:13.901Z,18.5
2016-07-08T03:33:13.881Z,18.48
2016-07-08T03:34:13.270Z,18.44
2016-07-08T03:35:13.239Z,18.47
2016-07-08T03:36:13.230Z,18.45
2016-07-08T03:37:13.823Z,18.4
2016-07-08T03:38:13.815Z,18.35
2016-07-08T03:39:13.184Z,18.41
2016-07-08T03:40:13.182Z,18.29
2016-07-08T03:41:13.160Z,18.14
2016-07-08T03:42:13.762Z,18.22
2016-07-08T03:43:13.757Z,18.08
2016-07-08T03:44:13.751Z,18.04
2016-07-08T03:45:13.123Z,18.05
2016-07-08T03:46:13.106Z,18.18
2016-07-08T03:47:13.080Z,18.1
2016-07-08T03:48:13.694Z,18.04
2016-07-08T03:49:13.699Z,18.04
2016-07-08T03:50:13.040Z,17.92
2016-07-08T03:51:13.667Z,18.01
2016-07-08T03:52:13.022Z,18.1
2016-07-08T03:53:13.622Z,18
2016-07-08T03:54:13.609Z,18.05
2016-07-08T03:55:13.644Z,17.95
2016-07-08T03:56:13.595Z,18.02
2016-07-08T03:57:13.029Z,18
2016-07-08T03:58:13.562Z,18.1
2016-07-08T03:59:13.578Z,18.15
2016-07-08T04:00:13.532Z,18.19
2016-07-08T04:01:12.905Z,18.29
2016-07-08T04:02:13.523Z,18.01
2016-07-08T04:03:12.876Z,18.02
2016-07-08T04:04:12.855Z,17.89
2016-07-08T04:05:13.480Z,18.04
2016-07-08T04:06:13.448Z,17.98
2016-07-08T04:07:12.874Z,18.12
2016-07-08T04:08:13.433Z,18.11
2016-07-08T04:09:13.416Z,18.02
2016-07-08T04:10:13.414Z,17.96
2016-07-08T04:11:12.849Z,17.95
2016-07-08T04:12:12.759Z,18
2016-07-08T04:13:12.780Z,17.83
2016-07-08T04:14:12.727Z,17.82
2016-07-08T04:15:13.346Z,17.77
2016-07-08T04:16:12.082Z,17.72
2016-07-08T04:17:12.699Z,17.65
2016-07-08T04:18:12.665Z,17.64
2016-07-08T04:19:13.348Z,17.64
2016-07-08T04:20:13.275Z,17.65
2016-07-08T04:21:13.313Z,17.68
2016-07-08T04:22:13.244Z,17.67
2016-07-08T04:23:12.628Z,17.89
2016-07-08T04:24:12.606Z,17.95
2016-07-08T04:25:13.252Z,17.98
2016-07-08T04:26:12.569Z,17.93
2016-07-08T04:27:11.923Z,18.1
2016-07-08T04:28:13.166Z,18.14
2016-07-08T04:29:13.146Z,18.25
2016-07-08T04:30:13.145Z,18.25
2016-07-08T04:31:13.166Z,18.07
2016-07-08T04:32:12.487Z,18.12
2016-07-08T04:33:13.107Z,18.05
2016-07-08T04:34:12.447Z,17.78
2016-07-08T04:35:13.066Z,17.82
2016-07-08T04:36:13.050Z,17.85
2016-07-08T04:37:13.048Z,17.72
2016-07-08T04:38:13.020Z,17.71
2016-07-08T04:39:12.384Z,17.77
2016-07-08T04:40:13.010Z,17.86
2016-07-08T04:41:12.998Z,17.95
2016-07-08T04:42:12.970Z,18.08
2016-07-08T04:43:12.963Z,18.14
2016-07-08T04:44:12.957Z,18.2
2016-07-08T04:45:12.947Z,18.26
2016-07-08T04:46:12.309Z,18.15
2016-07-08T04:47:12.944Z,18.14
2016-07-08T04:48:12.886Z,18.18
2016-07-08T04:49:12.899Z,18.12
2016-07-08T04:50:12.245Z,18.14
2016-07-08T04:51:11.610Z,18.22
2016-07-08T04:52:12.844Z,18.12
2016-07-08T04:53:12.835Z,18.14
2016-07-08T04:54:12.805Z,18.12
2016-07-08T04:55:12.813Z,18.19
2016-07-08T04:56:12.176Z,18.19
2016-07-08T04:57:12.786Z,18.25
2016-07-08T04:58:12.757Z,18.3
2016-07-08T04:59:12.795Z,18.33
2016-07-08T05:00:12.107Z,18.25
2016-07-08T05:01:12.726Z,18.35
2016-07-08T05:02:12.709Z,18.47
2016-07-08T05:03:12.079Z,18.55
2016-07-08T05:04:12.698Z,18.58
2016-07-08T05:05:12.679Z,18.78
2016-07-08T05:06:12.664Z,18.77
2016-07-08T05:07:12.648Z,18.73
2016-07-08T05:08:12.633Z,18.75
2016-07-08T05:09:11.379Z,18.7
2016-07-08T05:10:12.617Z,18.8
2016-07-08T05:11:12.648Z,18.73
2016-07-08T05:12:11.961Z,18.74
2016-07-08T05:13:11.934Z,18.75
2016-07-08T05:14:11.934Z,18.78
2016-07-08T05:15:12.555Z,18.82
2016-07-08T05:16:11.896Z,18.84
2016-07-08T05:17:12.514Z,18.96
2016-07-08T05:18:12.503Z,18.95
2016-07-08T05:19:12.506Z,18.99
2016-07-08T05:20:11.860Z,19
2016-07-08T05:21:12.464Z,19
2016-07-08T05:22:12.477Z,18.99
2016-07-08T05:23:11.809Z,18.97
2016-07-08T05:24:12.417Z,19
2016-07-08T05:25:12.405Z,19
2016-07-08T05:26:11.775Z,19.11
2016-07-08T05:27:12.384Z,19.22
2016-07-08T05:28:12.373Z,19.21
2016-07-08T05:29:12.361Z,19.15
2016-07-08T05:30:12.354Z,19.25
2016-07-08T05:31:12.333Z,19.31
2016-07-08T05:32:12.325Z,19.38
2016-07-08T05:33:12.316Z,19.31
2016-07-08T05:34:11.682Z,19.38
2016-07-08T05:35:11.667Z,19.48
2016-07-08T05:36:12.272Z,19.38
2016-07-08T05:37:12.273Z,19.55
2016-07-08T05:38:12.251Z,19.52
2016-07-08T05:39:11.606Z,19.49
2016-07-08T05:40:12.224Z,19.4
2016-07-08T05:41:11.585Z,19.37
2016-07-08T05:42:11.585Z,19.37
2016-07-08T05:43:11.565Z,19.56
2016-07-08T05:44:11.561Z,19.52
2016-07-08T05:45:12.168Z,19.59
2016-07-08T05:46:11.528Z,19.67
2016-07-08T05:47:12.127Z,19.77
2016-07-08T05:48:12.114Z,19.81
2016-07-08T05:49:12.125Z,19.78
2016-07-08T05:50:12.093Z,19.89
2016-07-08T05:51:11.541Z,19.71
2016-07-08T05:52:11.462Z,19.69
2016-07-08T05:53:12.065Z,19.76
2016-07-08T05:54:10.801Z,19.78
2016-07-08T05:55:11.468Z,19.83
2016-07-08T05:56:12.083Z,19.85
2016-07-08T05:57:12.024Z,19.81
2016-07-08T05:58:10.761Z,19.77
2016-07-08T05:59:11.424Z,19.8
2016-07-08T06:00:11.975Z,19.99
2016-07-08T06:01:11.965Z,19.98
2016-07-08T06:02:11.956Z,19.96
2016-07-08T06:03:11.321Z,20.13
2016-07-08T06:04:11.932Z,20.06
2016-07-08T06:05:11.301Z,19.96
2016-07-08T06:06:11.291Z,20.22
2016-07-08T06:07:11.270Z,20.2
2016-07-08T06:08:11.894Z,20.32
2016-07-08T06:09:11.862Z,20.44
2016-07-08T06:10:11.254Z,20.38
2016-07-08T06:11:11.848Z,20.41
2016-07-08T06:12:11.222Z,20.41
2016-07-08T06:13:11.194Z,20.36
2016-07-08T06:14:11.809Z,20.4
2016-07-08T06:15:11.890Z,20.44
2016-07-08T06:16:11.795Z,20.38
2016-07-08T06:17:11.241Z,20.41
2016-07-08T06:18:11.773Z,20.47
2016-07-08T06:19:11.197Z,20.57
2016-07-08T06:20:11.753Z,20.58
2016-07-08T06:21:11.735Z,20.63
2016-07-08T06:22:11.722Z,20.58
2016-07-08T06:23:11.793Z,20.64
2016-07-08T06:24:11.708Z,20.74
2016-07-08T06:25:11.701Z,20.76
2016-07-08T06:26:11.056Z,20.82
2016-07-08T06:27:11.677Z,20.87
2016-07-08T06:28:11.037Z,20.88
2016-07-08T06:29:11.650Z,20.95
2016-07-08T06:30:11.646Z,21.07
2016-07-08T06:31:11.009Z,21.17
2016-07-08T06:32:11.002Z,21.15
2016-07-08T06:33:11.087Z,21.07
2016-07-08T06:34:11.597Z,21.1
2016-07-08T06:35:11.578Z,21.29
2016-07-08T06:36:10.960Z,21.28
2016-07-08T06:37:10.950Z,21.24
2016-07-08T06:38:10.927Z,21.43
2016-07-08T06:39:10.955Z,21.46
2016-07-08T06:40:11.539Z,21.5
2016-07-08T06:41:10.903Z,21.43
2016-07-08T06:42:10.893Z,21.41
2016-07-08T06:43:11.502Z,21.34
2016-07-08T06:44:11.496Z,21.39
2016-07-08T06:45:11.484Z,21.43
2016-07-08T06:46:10.841Z,21.52
2016-07-08T06:47:10.832Z,21.55
2016-07-08T06:48:11.440Z,21.55
2016-07-08T06:49:11.539Z,21.65
2016-07-08T06:50:11.443Z,21.39
2016-07-08T06:51:11.460Z,21.4
2016-07-08T06:52:11.418Z,21.44
2016-07-08T06:53:10.783Z,21.4
2016-07-08T06:54:11.381Z,21.4
2016-07-08T06:55:10.748Z,21.49
2016-07-08T06:56:10.750Z,21.52
2016-07-08T06:57:11.378Z,21.46
2016-07-08T06:58:11.350Z,21.56
2016-07-08T06:59:11.355Z,21.46
2016-07-08T07:00:10.090Z,21.54
2016-07-08T07:01:11.338Z,21.62
2016-07-08T07:02:10.687Z,21.62
2016-07-08T07:03:10.046Z,21.74
2016-07-08T07:04:10.679Z,21.92
2016-07-08T07:05:11.288Z,21.9
2016-07-08T07:06:11.256Z,21.88
2016-07-08T07:07:10.626Z,21.96
2016-07-08T07:08:11.247Z,22.11
2016-07-08T07:09:11.226Z,21.97
2016-07-08T07:10:10.600Z,22.02
2016-07-08T07:11:10.589Z,21.96
2016-07-08T07:12:10.574Z,21.86
2016-07-08T07:13:11.190Z,21.99
2016-07-08T07:14:10.555Z,22.06
2016-07-08T07:15:11.171Z,22.1
2016-07-08T07:16:11.160Z,21.97
2016-07-08T07:17:10.541Z,22.05
2016-07-08T07:18:09.907Z,21.86
2016-07-08T07:19:10.520Z,21.92
2016-07-08T07:20:11.110Z,21.96
2016-07-08T07:21:10.505Z,21.96
2016-07-08T07:22:10.490Z,21.92
2016-07-08T07:23:10.475Z,22
2016-07-08T07:24:10.462Z,22.14
2016-07-08T07:25:11.071Z,22.12
2016-07-08T07:26:11.176Z,22.24
2016-07-08T07:27:11.059Z,22.32
2016-07-08T07:28:11.031Z,22.3
2016-07-08T07:29:11.030Z,22.37
2016-07-08T07:30:09.788Z,22.35
2016-07-08T07:31:10.388Z,22.33
2016-07-08T07:32:11.061Z,22.22
2016-07-08T07:33:10.998Z,22.03
2016-07-08T07:34:11.062Z,22.12
2016-07-08T07:35:10.978Z,22.18
2016-07-08T07:36:10.340Z,22.21
2016-07-08T07:37:10.952Z,22.3
2016-07-08T07:38:10.333Z,22.06
2016-07-08T07:39:10.937Z,22
2016-07-08T07:40:10.298Z,22.12
2016-07-08T07:41:10.310Z,22.02
2016-07-08T07:42:10.296Z,22.22
2016-07-08T07:43:10.893Z,22.06
2016-07-08T07:44:10.269Z,22.15
2016-07-08T07:45:10.871Z,22.3
2016-07-08T07:46:10.242Z,22.32
2016-07-08T07:47:10.851Z,22.48
2016-07-08T07:48:10.853Z,22.51
2016-07-08T07:49:10.220Z,22.61
2016-07-08T07:50:09.587Z,22.51
2016-07-08T07:51:10.811Z,22.58
2016-07-08T07:52:10.843Z,22.4
2016-07-08T07:53:10.798Z,22.4
2016-07-08T07:54:10.789Z,22.58
2016-07-08T07:55:10.179Z,22.69
2016-07-08T07:56:10.140Z,22.72
2016-07-08T07:57:10.130Z,22.7
2016-07-08T07:58:10.135Z,22.79
2016-07-08T07:59:10.121Z,22.77
2016-07-08T08:00:10.730Z,22.77
2016-07-08T08:01:10.722Z,22.72
2016-07-08T08:02:10.700Z,22.7
2016-07-08T08:03:10.704Z,22.7
2016-07-08T08:04:10.075Z,22.67
2016-07-08T08:05:10.702Z,22.61
2016-07-08T08:06:10.271Z,22.59
2016-07-08T08:07:10.051Z,22.61
2016-07-08T08:08:10.672Z,22.66
2016-07-08T08:09:10.649Z,22.65
2016-07-08T08:10:10.632Z,22.59
2016-07-08T08:11:10.006Z,22.74
2016-07-08T08:12:09.991Z,22.91
2016-07-08T08:13:10.610Z,22.98
2016-07-08T08:14:09.967Z,22.92
2016-07-08T08:15:09.359Z,22.94
2016-07-08T08:16:10.573Z,23.03
2016-07-08T08:17:10.630Z,23.13
2016-07-08T08:18:10.557Z,23.25
2016-07-08T08:19:10.552Z,22.92
2016-07-08T08:20:09.919Z,22.79
2016-07-08T08:21:10.526Z,22.79
2016-07-08T08:22:10.531Z,22.85
2016-07-08T08:23:09.280Z,22.97
2016-07-08T08:24:10.514Z,23.22
2016-07-08T08:25:09.876Z,23.33
2016-07-08T08:26:09.872Z,23.41
2016-07-08T08:27:10.473Z,23.62
2016-07-08T08:28:09.847Z,23.63
2016-07-08T08:29:10.472Z,23.72
2016-07-08T08:30:09.834Z,23.72
2016-07-08T08:31:10.439Z,23.7
2016-07-08T08:32:10.424Z,23.77
2016-07-08T08:33:10.421Z,23.8
2016-07-08T08:34:10.408Z,23.63
2016-07-08T08:35:10.407Z,23.52
2016-07-08T08:36:09.777Z,23.55
2016-07-08T08:37:09.755Z,23.44
2016-07-08T08:38:09.169Z,23.33
2016-07-08T08:39:10.410Z,23.35
2016-07-08T08:40:09.733Z,23.42
2016-07-08T08:41:09.742Z,23.59
2016-07-08T08:42:09.717Z,23.54
2016-07-08T08:43:10.420Z,23.52
2016-07-08T08:44:09.739Z,23.62
2016-07-08T08:45:09.698Z,23.72
2016-07-08T08:46:09.679Z,23.66
2016-07-08T08:47:10.295Z,23.63
2016-07-08T08:48:09.037Z,23.57
2016-07-08T08:49:10.345Z,23.63
2016-07-08T08:50:10.356Z,23.66
2016-07-08T08:51:09.648Z,23.63
2016-07-08T08:52:09.686Z,23.59
2016-07-08T08:53:09.633Z,23.52
2016-07-08T08:54:10.257Z,23.57
2016-07-08T08:55:09.606Z,23.63
2016-07-08T08:56:08.972Z,23.57
2016-07-08T08:57:10.209Z,23.4
2016-07-08T08:58:08.958Z,23.45
2016-07-08T08:59:10.199Z,23.54
2016-07-08T09:00:10.199Z,23.45
2016-07-08T09:01:10.166Z,23.35
2016-07-08T09:02:10.219Z,23.27
2016-07-08T09:03:09.549Z,23.19
2016-07-08T09:04:09.537Z,23.24
2016-07-08T09:05:09.513Z,23.14
2016-07-08T09:06:09.507Z,23.24
2016-07-08T09:07:10.120Z,23.24
2016-07-08T09:08:10.112Z,23.09
2016-07-08T09:09:09.472Z,23.09
2016-07-08T09:10:09.461Z,23.07
2016-07-08T09:11:09.459Z,23.14
2016-07-08T09:12:10.067Z,23.14
2016-07-08T09:13:10.061Z,23.25
2016-07-08T09:14:09.440Z,23.33
2016-07-08T09:15:08.793Z,23.22
2016-07-08T09:16:08.807Z,23.09
2016-07-08T09:17:10.025Z,23.06
2016-07-08T09:18:08.775Z,23.28
2016-07-08T09:19:10.029Z,23.29
2016-07-08T09:20:08.756Z,23.38
2016-07-08T09:21:10.006Z,23.47
2016-07-08T09:22:09.368Z,23.42
2016-07-08T09:23:09.354Z,23.32
2016-07-08T09:24:09.965Z,23.38
2016-07-08T09:25:09.328Z,23.48
2016-07-08T09:26:09.967Z,23.57
2016-07-08T09:27:08.702Z,23.69
2016-07-08T09:28:09.296Z,23.57
2016-07-08T09:29:09.913Z,23.7
2016-07-08T09:30:09.921Z,23.7
2016-07-08T09:31:09.280Z,23.65
2016-07-08T09:32:08.653Z,23.66
2016-07-08T09:33:09.889Z,23.55
2016-07-08T09:34:09.874Z,23.45
2016-07-08T09:35:09.857Z,23.29
2016-07-08T09:36:08.618Z,23.38
2016-07-08T09:37:09.237Z,23.47
2016-07-08T09:38:09.221Z,23.62
2016-07-08T09:39:09.835Z,23.73
2016-07-08T09:40:09.817Z,23.77
2016-07-08T09:41:09.234Z,23.72
2016-07-08T09:42:08.565Z,23.87
2016-07-08T09:43:09.804Z,23.84
2016-07-08T09:44:08.541Z,23.75
2016-07-08T09:45:08.535Z,23.84
2016-07-08T09:46:09.142Z,23.82
2016-07-08T09:47:09.138Z,24.07
2016-07-08T09:48:09.755Z,24.06
2016-07-08T09:49:09.757Z,23.91
2016-07-08T09:50:09.727Z,24
2016-07-08T09:51:08.497Z,23.91
2016-07-08T09:52:09.717Z,23.88
2016-07-08T09:53:09.086Z,23.97
2016-07-08T09:54:09.082Z,23.99
2016-07-08T09:55:09.058Z,23.88
2016-07-08T09:56:09.675Z,23.95
2016-07-08T09:57:09.711Z,24
2016-07-08T09:58:09.653Z,24.07
2016-07-08T09:59:09.650Z,24.14
2016-07-08T10:00:09.029Z,24.25
2016-07-08T10:01:09.638Z,23.96
2016-07-08T10:02:09.639Z,24.06
2016-07-08T10:03:08.378Z,23.99
2016-07-08T10:04:09.037Z,23.96
2016-07-08T10:05:09.609Z,24.06
2016-07-08T10:06:09.047Z,24.06
2016-07-08T10:07:08.974Z,24.09
2016-07-08T10:08:09.591Z,24.06
2016-07-08T10:09:08.324Z,24.04
2016-07-08T10:10:08.971Z,24.07
2016-07-08T10:11:08.931Z,24.02
2016-07-08T10:12:08.927Z,23.96
2016-07-08T10:13:08.910Z,23.89
2016-07-08T10:14:08.903Z,23.75
2016-07-08T10:15:08.901Z,23.84
2016-07-08T10:16:08.887Z,23.85
2016-07-08T10:17:09.505Z,23.99
2016-07-08T10:18:08.247Z,24.09
2016-07-08T10:19:08.856Z,24
2016-07-08T10:20:09.486Z,24.09
2016-07-08T10:21:08.844Z,23.99
2016-07-08T10:22:08.217Z,24.07
2016-07-08T10:23:09.443Z,23.96
2016-07-08T10:24:08.818Z,23.85
2016-07-08T10:25:08.810Z,23.75
2016-07-08T10:26:08.810Z,23.77
2016-07-08T10:27:08.783Z,23.75
2016-07-08T10:28:09.412Z,23.75
2016-07-08T10:29:08.783Z,23.75
2016-07-08T10:30:08.821Z,23.69
2016-07-08T10:31:09.380Z,23.78
2016-07-08T10:32:08.739Z,23.81
2016-07-08T10:33:08.744Z,23.69
2016-07-08T10:34:08.116Z,23.66
2016-07-08T10:35:09.359Z,23.6
2016-07-08T10:36:09.382Z,23.65
2016-07-08T10:37:09.336Z,23.72
2016-07-08T10:38:08.720Z,23.69
2016-07-08T10:39:09.304Z,23.8
2016-07-08T10:40:08.747Z,23.87
2016-07-08T10:41:09.306Z,24
2016-07-08T10:42:09.310Z,23.87
2016-07-08T10:43:08.649Z,23.75
2016-07-08T10:44:09.273Z,23.72
2016-07-08T10:45:09.252Z,23.67
2016-07-08T10:46:09.258Z,23.52
2016-07-08T10:47:09.246Z,23.67
2016-07-08T10:48:08.615Z,23.62
2016-07-08T10:49:09.216Z,23.52
2016-07-08T10:50:08.599Z,23.55
2016-07-08T10:51:08.585Z,23.57
2016-07-08T10:52:09.196Z,23.59
2016-07-08T10:53:09.184Z,23.69
2016-07-08T10:54:09.185Z,23.73
2016-07-08T10:55:08.536Z,23.77
2016-07-08T10:56:08.538Z,23.72
2016-07-08T10:57:08.521Z,23.8
2016-07-08T10:58:08.531Z,23.82
2016-07-08T10:59:08.506Z,23.7
2016-07-08T11:00:09.137Z,23.81
2016-07-08T11:01:09.111Z,23.85
2016-07-08T11:02:09.101Z,23.82
2016-07-08T11:03:08.476Z,23.8
2016-07-08T11:04:09.098Z,23.97
2016-07-08T11:05:07.830Z,23.89
2016-07-08T11:06:08.448Z,23.99
2016-07-08T11:07:07.828Z,23.85
2016-07-08T11:08:08.437Z,23.99
2016-07-08T11:09:08.425Z,23.95
2016-07-08T11:10:08.416Z,23.82
2016-07-08T11:11:09.032Z,23.88
2016-07-08T11:12:08.394Z,23.87
2016-07-08T11:13:09.014Z,23.97
2016-07-08T11:14:08.386Z,23.75
2016-07-08T11:15:09.002Z,23.67
2016-07-08T11:16:08.984Z,23.73
2016-07-08T11:17:08.983Z,23.72
2016-07-08T11:18:08.971Z,23.66
2016-07-08T11:19:08.344Z,23.63
2016-07-08T11:20:08.328Z,23.54
2016-07-08T11:21:08.962Z,23.62
2016-07-08T11:22:08.314Z,23.65
2016-07-08T11:23:08.304Z,23.75
2016-07-08T11:24:08.291Z,23.66
2016-07-08T11:25:07.664Z,23.55
2016-07-08T11:26:08.900Z,23.63
2016-07-08T11:27:08.891Z,23.69
2016-07-08T11:28:08.862Z,23.72
2016-07-08T11:29:08.251Z,23.69
2016-07-08T11:30:08.865Z,23.81
2016-07-08T11:31:08.865Z,23.81
2016-07-08T11:32:07.612Z,23.85
2016-07-08T11:33:08.828Z,23.88
2016-07-08T11:34:08.822Z,23.95
2016-07-08T11:35:08.816Z,24
2016-07-08T11:36:08.191Z,23.75
2016-07-08T11:37:07.570Z,23.65
2016-07-08T11:38:08.175Z,23.69
2016-07-08T11:39:08.163Z,23.65
2016-07-08T11:40:08.777Z,23.7
2016-07-08T11:41:08.770Z,23.8
2016-07-08T11:42:08.751Z,23.82
2016-07-08T11:43:08.751Z,23.78
2016-07-08T11:44:08.738Z,23.7
2016-07-08T11:45:07.497Z,23.78
2016-07-08T11:46:08.718Z,23.8
2016-07-08T11:47:08.098Z,23.81
2016-07-08T11:48:08.084Z,23.81
2016-07-08T11:49:07.460Z,23.8
2016-07-08T11:50:08.678Z,23.82
2016-07-08T11:51:08.672Z,23.81
2016-07-08T11:52:08.088Z,23.77
2016-07-08T11:53:08.045Z,23.73
2016-07-08T11:54:08.038Z,23.78
2016-07-08T11:55:08.028Z,23.85
2016-07-08T11:56:08.659Z,23.95
2016-07-08T11:57:07.398Z,23.97
2016-07-08T11:58:08.631Z,23.96
2016-07-08T11:59:07.979Z,24.02
2016-07-08T12:00:08.597Z,23.96
2016-07-08T12:01:08.600Z,23.99
2016-07-08T12:02:08.599Z,24.1
2016-07-08T12:03:07.328Z,24.15
2016-07-08T12:04:07.338Z,24.14
2016-07-08T12:05:07.951Z,24.34
2016-07-08T12:06:08.598Z,24.36
2016-07-08T12:07:08.535Z,24.24
2016-07-08T12:08:07.921Z,24.22
2016-07-08T12:09:08.523Z,24.24
2016-07-08T12:10:07.897Z,24.27
2016-07-08T12:11:08.511Z,24.4
2016-07-08T12:12:08.506Z,24.43
2016-07-08T12:13:08.511Z,24.59
2016-07-08T12:14:07.870Z,24.49
2016-07-08T12:15:08.497Z,24.59
2016-07-08T12:16:08.459Z,24.58
2016-07-08T12:17:08.457Z,24.52
2016-07-08T12:18:08.449Z,24.59
2016-07-08T12:19:07.818Z,24.87
2016-07-08T12:20:07.811Z,25.03
2016-07-08T12:21:07.804Z,25.17
2016-07-08T12:22:07.791Z,25
2016-07-08T12:23:08.407Z,24.97
2016-07-08T12:24:07.779Z,25.11
2016-07-08T12:25:07.787Z,25.32
2016-07-08T12:26:08.385Z,25.47
2016-07-08T12:27:08.378Z,25.7
2016-07-08T12:28:07.760Z,26.06
2016-07-08T12:29:07.759Z,26.23
2016-07-08T12:30:07.731Z,25.85
2016-07-08T12:31:08.358Z,25.69
2016-07-08T12:32:07.722Z,25.73
2016-07-08T12:33:07.721Z,25.81
2016-07-08T12:34:07.708Z,25.84
2016-07-08T12:35:07.719Z,25.91
2016-07-08T12:36:07.086Z,25.89
2016-07-08T12:37:08.338Z,25.73
2016-07-08T12:38:07.678Z,25.73
2016-07-08T12:39:08.374Z,25.67
2016-07-08T12:40:07.062Z,25.54
2016-07-08T12:41:07.659Z,25.51
2016-07-08T12:42:07.647Z,25.42
2016-07-08T12:43:08.335Z,25.27
2016-07-08T12:44:07.668Z,25.18
2016-07-08T12:45:08.303Z,24.87
2016-07-08T12:46:08.247Z,24.64
2016-07-08T12:47:07.614Z,24.46
2016-07-08T12:48:08.235Z,24.27
2016-07-08T12:49:07.610Z,24.14
2016-07-08T12:50:07.596Z,24.04
2016-07-08T12:51:07.600Z,24.06
2016-07-08T12:52:07.580Z,24.21
2016-07-08T12:53:07.568Z,24.32
2016-07-08T12:54:08.183Z,24.39
2016-07-08T12:55:06.942Z,24.37
2016-07-08T12:56:07.553Z,24.27